sensor_id;sensor_type;location;lat;lon;timestamp;temperature;humidity
39777;DHT22;25453;48.162;14.510;2022-07-29T00:01:09;24.10;59.40
39777;DHT22;25453;48.162;14.510;2022-07-29T00:03:45;24.10;59.40
39777;DHT22;25453;48.162;14.510;2022-07-29T00:06:14;24.10;59.40
39777;DHT22;25453;48.162;14.510;2022-07-29T00:08:42;24.10;59.30
39777;DHT22;25453;48.162;14.510;2022-07-29T00:11:09;24.10;59.30
39777;DHT22;25453;48.162;14.510;2022-07-29T00:13:37;24.00;59.40
39777;DHT22;25453;48.162;14.510;2022-07-29T00:16:05;24.00;59.30
39777;DHT22;25453;48.162;14.510;2022-07-29T00:18:32;23.90;59.40
39777;DHT22;25453;48.162;14.510;2022-07-29T00:21:00;23.90;59.50
39777;DHT22;25453;48.162;14.510;2022-07-29T00:23:27;23.80;59.50
39777;DHT22;25453;48.162;14.510;2022-07-29T00:25:57;23.80;59.50
39777;DHT22;25453;48.162;14.510;2022-07-29T00:28:24;23.80;59.50
39777;DHT22;25453;48.162;14.510;2022-07-29T00:30:52;23.70;59.50
39777;DHT22;25453;48.162;14.510;2022-07-29T00:33:19;23.60;59.60
39777;DHT22;25453;48.162;14.510;2022-07-29T00:35:47;23.60;59.80
39777;DHT22;25453;48.162;14.510;2022-07-29T00:38:17;23.50;59.90
39777;DHT22;25453;48.162;14.510;2022-07-29T00:40:45;23.50;60.10
39777;DHT22;25453;48.162;14.510;2022-07-29T00:43:14;23.40;60.30
39777;DHT22;25453;48.162;14.510;2022-07-29T00:45:43;23.40;60.60
39777;DHT22;25453;48.162;14.510;2022-07-29T00:48:11;23.40;60.60
39777;DHT22;25453;48.162;14.510;2022-07-29T00:50:38;23.40;60.60
39777;DHT22;25453;48.162;14.510;2022-07-29T00:53:07;23.30;60.80
39777;DHT22;25453;48.162;14.510;2022-07-29T00:55:36;23.20;60.80
39777;DHT22;25453;48.162;14.510;2022-07-29T00:58:05;23.20;61.00
39777;DHT22;25453;48.162;14.510;2022-07-29T01:00:33;23.20;61.30
39777;DHT22;25453;48.162;14.510;2022-07-29T01:03:02;23.10;61.40
39777;DHT22;25453;48.162;14.510;2022-07-29T01:05:30;23.00;61.50
39777;DHT22;25453;48.162;14.510;2022-07-29T01:08:17;23.00;61.80
39777;DHT22;25453;48.162;14.510;2022-07-29T01:10:46;23.00;62.00
39777;DHT22;25453;48.162;14.510;2022-07-29T01:13:15;22.90;62.10
39777;DHT22;25453;48.162;14.510;2022-07-29T01:15:47;22.90;62.20
39777;DHT22;25453;48.162;14.510;2022-07-29T01:18:22;22.80;62.20
39777;DHT22;25453;48.162;14.510;2022-07-29T01:24:33;22.70;62.50
39777;DHT22;25453;48.162;14.510;2022-07-29T01:30:03;22.60;62.90
39777;DHT22;25453;48.162;14.510;2022-07-29T01:32:37;22.60;62.90
39777;DHT22;25453;48.162;14.510;2022-07-29T01:42:55;22.60;63.40
39777;DHT22;25453;48.162;14.510;2022-07-29T01:45:29;22.60;63.50
39777;DHT22;25453;48.162;14.510;2022-07-29T01:48:26;22.70;63.70
39777;DHT22;25453;48.162;14.510;2022-07-29T01:56:36;22.70;63.60
39777;DHT22;25453;48.162;14.510;2022-07-29T01:59:06;22.70;63.60
39777;DHT22;25453;48.162;14.510;2022-07-29T02:01:37;22.70;63.70
39777;DHT22;25453;48.162;14.510;2022-07-29T02:04:09;22.70;63.90
39777;DHT22;25453;48.162;14.510;2022-07-29T02:06:54;22.70;64.00
39777;DHT22;25453;48.162;14.510;2022-07-29T02:09:23;22.70;64.00
39777;DHT22;25453;48.162;14.510;2022-07-29T02:11:53;22.70;64.20
39777;DHT22;25453;48.162;14.510;2022-07-29T02:14:23;22.80;64.30
39777;DHT22;25453;48.162;14.510;2022-07-29T02:16:53;22.80;64.20
39777;DHT22;25453;48.162;14.510;2022-07-29T02:19:25;22.80;64.20
39777;DHT22;25453;48.162;14.510;2022-07-29T02:21:56;22.80;64.10
39777;DHT22;25453;48.162;14.510;2022-07-29T02:24:26;22.80;64.10
39777;DHT22;25453;48.162;14.510;2022-07-29T02:26:56;22.80;64.00
39777;DHT22;25453;48.162;14.510;2022-07-29T02:29:28;22.80;63.90
39777;DHT22;25453;48.162;14.510;2022-07-29T02:31:57;22.80;63.80
39777;DHT22;25453;48.162;14.510;2022-07-29T02:34:27;22.80;63.70
39777;DHT22;25453;48.162;14.510;2022-07-29T02:36:56;22.80;63.80
39777;DHT22;25453;48.162;14.510;2022-07-29T02:39:24;22.70;63.70
39777;DHT22;25453;48.162;14.510;2022-07-29T02:42:01;22.70;63.70
39777;DHT22;25453;48.162;14.510;2022-07-29T02:44:30;22.70;63.80
39777;DHT22;25453;48.162;14.510;2022-07-29T02:50:09;22.80;64.00
39777;DHT22;25453;48.162;14.510;2022-07-29T02:52:45;22.80;64.10
39777;DHT22;25453;48.162;14.510;2022-07-29T02:55:37;22.90;64.00
39777;DHT22;25453;48.162;14.510;2022-07-29T02:58:32;22.90;63.90
39777;DHT22;25453;48.162;14.510;2022-07-29T03:01:16;22.90;63.90
39777;DHT22;25453;48.162;14.510;2022-07-29T03:03:50;22.80;63.90
39777;DHT22;25453;48.162;14.510;2022-07-29T03:06:21;22.80;64.10
39777;DHT22;25453;48.162;14.510;2022-07-29T03:09:04;22.70;64.10
39777;DHT22;25453;48.162;14.510;2022-07-29T03:11:40;22.70;64.20
39777;DHT22;25453;48.162;14.510;2022-07-29T03:14:19;22.70;64.30
39777;DHT22;25453;48.162;14.510;2022-07-29T03:16:48;22.70;64.40
39777;DHT22;25453;48.162;14.510;2022-07-29T03:19:17;22.70;64.50
39777;DHT22;25453;48.162;14.510;2022-07-29T03:21:45;22.70;64.40
39777;DHT22;25453;48.162;14.510;2022-07-29T03:24:31;22.60;64.40
39777;DHT22;25453;48.162;14.510;2022-07-29T03:27:00;22.60;64.60
39777;DHT22;25453;48.162;14.510;2022-07-29T03:29:28;22.60;64.90
39777;DHT22;25453;48.162;14.510;2022-07-29T03:32:05;22.50;64.90
39777;DHT22;25453;48.162;14.510;2022-07-29T03:34:35;22.50;64.90
39777;DHT22;25453;48.162;14.510;2022-07-29T03:37:04;22.50;65.10
39777;DHT22;25453;48.162;14.510;2022-07-29T03:39:38;22.50;65.20
39777;DHT22;25453;48.162;14.510;2022-07-29T03:42:10;22.40;65.30
39777;DHT22;25453;48.162;14.510;2022-07-29T03:44:39;22.40;65.40
39777;DHT22;25453;48.162;14.510;2022-07-29T03:47:09;22.40;65.50
39777;DHT22;25453;48.162;14.510;2022-07-29T03:49:39;22.40;65.50
39777;DHT22;25453;48.162;14.510;2022-07-29T03:52:08;22.40;65.50
39777;DHT22;25453;48.162;14.510;2022-07-29T03:54:36;22.40;65.60
39777;DHT22;25453;48.162;14.510;2022-07-29T03:57:06;22.50;65.60
39777;DHT22;25453;48.162;14.510;2022-07-29T03:59:34;22.50;65.70
39777;DHT22;25453;48.162;14.510;2022-07-29T04:02:04;22.50;65.60
39777;DHT22;25453;48.162;14.510;2022-07-29T04:04:34;22.50;65.70
39777;DHT22;25453;48.162;14.510;2022-07-29T04:07:02;22.50;65.70
39777;DHT22;25453;48.162;14.510;2022-07-29T04:09:30;22.50;65.90
39777;DHT22;25453;48.162;14.510;2022-07-29T04:11:57;22.50;66.00
39777;DHT22;25453;48.162;14.510;2022-07-29T04:14:31;22.60;66.10
39777;DHT22;25453;48.162;14.510;2022-07-29T04:17:00;22.60;66.10
39777;DHT22;25453;48.162;14.510;2022-07-29T04:19:29;22.70;66.00
39777;DHT22;25453;48.162;14.510;2022-07-29T04:21:59;22.60;65.90
39777;DHT22;25453;48.162;14.510;2022-07-29T04:24:27;22.60;66.00
39777;DHT22;25453;48.162;14.510;2022-07-29T04:26:54;22.60;66.10
39777;DHT22;25453;48.162;14.510;2022-07-29T04:29:23;22.60;66.30
39777;DHT22;25453;48.162;14.510;2022-07-29T04:31:51;22.60;66.40
39777;DHT22;25453;48.162;14.510;2022-07-29T04:34:18;22.70;66.40
39777;DHT22;25453;48.162;14.510;2022-07-29T04:36:46;22.70;66.40
39777;DHT22;25453;48.162;14.510;2022-07-29T04:39:14;22.70;66.20
39777;DHT22;25453;48.162;14.510;2022-07-29T04:41:48;22.70;66.20
39777;DHT22;25453;48.162;14.510;2022-07-29T04:44:20;22.70;66.30
39777;DHT22;25453;48.162;14.510;2022-07-29T04:46:54;22.70;66.50
39777;DHT22;25453;48.162;14.510;2022-07-29T04:49:22;22.80;66.50
39777;DHT22;25453;48.162;14.510;2022-07-29T04:51:49;22.80;66.60
39777;DHT22;25453;48.162;14.510;2022-07-29T04:54:17;22.80;66.60
39777;DHT22;25453;48.162;14.510;2022-07-29T04:56:45;22.80;66.60
39777;DHT22;25453;48.162;14.510;2022-07-29T04:59:14;22.80;66.70
39777;DHT22;25453;48.162;14.510;2022-07-29T05:01:41;22.80;66.80
39777;DHT22;25453;48.162;14.510;2022-07-29T05:04:09;22.90;66.80
39777;DHT22;25453;48.162;14.510;2022-07-29T05:06:37;23.00;66.80
39777;DHT22;25453;48.162;14.510;2022-07-29T05:09:04;23.00;66.70
39777;DHT22;25453;48.162;14.510;2022-07-29T05:11:31;23.00;66.60
39777;DHT22;25453;48.162;14.510;2022-07-29T05:13:59;23.10;66.50
39777;DHT22;25453;48.162;14.510;2022-07-29T05:16:28;23.10;66.50
39777;DHT22;25453;48.162;14.510;2022-07-29T05:18:56;23.10;66.40
39777;DHT22;25453;48.162;14.510;2022-07-29T05:21:23;23.10;66.50
39777;DHT22;25453;48.162;14.510;2022-07-29T05:23:51;23.10;66.60
39777;DHT22;25453;48.162;14.510;2022-07-29T05:26:19;23.10;66.50
39777;DHT22;25453;48.162;14.510;2022-07-29T05:28:46;23.10;66.50
39777;DHT22;25453;48.162;14.510;2022-07-29T05:31:13;23.20;66.40
39777;DHT22;25453;48.162;14.510;2022-07-29T05:33:44;23.20;66.20
39777;DHT22;25453;48.162;14.510;2022-07-29T05:36:12;23.20;66.00
39777;DHT22;25453;48.162;14.510;2022-07-29T05:38:40;23.20;66.00
39777;DHT22;25453;48.162;14.510;2022-07-29T05:41:08;23.20;66.00
39777;DHT22;25453;48.162;14.510;2022-07-29T05:43:35;23.20;65.90
39777;DHT22;25453;48.162;14.510;2022-07-29T05:46:03;23.20;65.90
39777;DHT22;25453;48.162;14.510;2022-07-29T05:48:31;23.20;65.80
39777;DHT22;25453;48.162;14.510;2022-07-29T05:50:59;23.20;65.70
39777;DHT22;25453;48.162;14.510;2022-07-29T05:53:27;23.20;65.50
39777;DHT22;25453;48.162;14.510;2022-07-29T05:55:55;23.20;65.50
39777;DHT22;25453;48.162;14.510;2022-07-29T05:58:23;23.20;65.40
39777;DHT22;25453;48.162;14.510;2022-07-29T06:00:51;23.20;65.50
39777;DHT22;25453;48.162;14.510;2022-07-29T06:03:18;23.10;65.50
39777;DHT22;25453;48.162;14.510;2022-07-29T06:05:46;23.10;65.50
39777;DHT22;25453;48.162;14.510;2022-07-29T06:08:13;23.10;65.60
39777;DHT22;25453;48.162;14.510;2022-07-29T06:10:41;23.10;65.50
39777;DHT22;25453;48.162;14.510;2022-07-29T06:13:09;23.10;65.60
39777;DHT22;25453;48.162;14.510;2022-07-29T06:15:39;23.10;65.70
39777;DHT22;25453;48.162;14.510;2022-07-29T06:18:07;23.10;65.80
39777;DHT22;25453;48.162;14.510;2022-07-29T06:20:37;23.10;66.00
39777;DHT22;25453;48.162;14.510;2022-07-29T06:23:04;23.10;66.30
39777;DHT22;25453;48.162;14.510;2022-07-29T06:25:32;23.20;66.40
39777;DHT22;25453;48.162;14.510;2022-07-29T06:28:01;23.20;66.40
39777;DHT22;25453;48.162;14.510;2022-07-29T06:30:29;23.30;66.40
39777;DHT22;25453;48.162;14.510;2022-07-29T06:32:57;23.30;66.40
39777;DHT22;25453;48.162;14.510;2022-07-29T06:35:24;23.40;66.50
39777;DHT22;25453;48.162;14.510;2022-07-29T06:38:08;23.40;66.50
39777;DHT22;25453;48.162;14.510;2022-07-29T06:40:56;23.40;66.50
39777;DHT22;25453;48.162;14.510;2022-07-29T06:43:39;23.40;66.30
39777;DHT22;25453;48.162;14.510;2022-07-29T06:46:22;23.40;66.20
39777;DHT22;25453;48.162;14.510;2022-07-29T06:48:50;23.50;66.00
39777;DHT22;25453;48.162;14.510;2022-07-29T06:51:20;23.40;65.80
39777;DHT22;25453;48.162;14.510;2022-07-29T06:53:53;23.40;65.60
39777;DHT22;25453;48.162;14.510;2022-07-29T06:56:32;23.40;65.50
39777;DHT22;25453;48.162;14.510;2022-07-29T06:59:06;23.40;65.30
39777;DHT22;25453;48.162;14.510;2022-07-29T07:01:35;23.40;65.20
39777;DHT22;25453;48.162;14.510;2022-07-29T07:04:04;23.50;65.10
39777;DHT22;25453;48.162;14.510;2022-07-29T07:06:32;23.50;64.80
39777;DHT22;25453;48.162;14.510;2022-07-29T07:08:59;23.50;64.70
39777;DHT22;25453;48.162;14.510;2022-07-29T07:11:27;23.50;64.70
39777;DHT22;25453;48.162;14.510;2022-07-29T07:13:56;23.60;64.50
39777;DHT22;25453;48.162;14.510;2022-07-29T07:16:29;23.60;64.50
39777;DHT22;25453;48.162;14.510;2022-07-29T07:18:57;23.60;64.60
39777;DHT22;25453;48.162;14.510;2022-07-29T07:21:24;23.70;64.50
39777;DHT22;25453;48.162;14.510;2022-07-29T07:23:56;23.70;64.40
39777;DHT22;25453;48.162;14.510;2022-07-29T07:26:24;23.70;64.40
39777;DHT22;25453;48.162;14.510;2022-07-29T07:28:53;23.80;64.30
39777;DHT22;25453;48.162;14.510;2022-07-29T07:31:20;23.80;64.20
39777;DHT22;25453;48.162;14.510;2022-07-29T07:33:48;23.80;64.00
39777;DHT22;25453;48.162;14.510;2022-07-29T07:36:15;23.80;63.70
39777;DHT22;25453;48.162;14.510;2022-07-29T07:38:43;23.90;63.60
39777;DHT22;25453;48.162;14.510;2022-07-29T07:41:11;23.90;63.40
39777;DHT22;25453;48.162;14.510;2022-07-29T07:43:38;23.90;63.10
39777;DHT22;25453;48.162;14.510;2022-07-29T07:46:06;24.00;63.20
39777;DHT22;25453;48.162;14.510;2022-07-29T07:48:33;24.00;63.20
39777;DHT22;25453;48.162;14.510;2022-07-29T07:51:01;24.10;63.10
39777;DHT22;25453;48.162;14.510;2022-07-29T07:53:29;24.10;63.00
39777;DHT22;25453;48.162;14.510;2022-07-29T07:55:58;24.20;62.80
39777;DHT22;25453;48.162;14.510;2022-07-29T07:58:36;24.20;62.60
39777;DHT22;25453;48.162;14.510;2022-07-29T08:01:04;24.30;62.40
39777;DHT22;25453;48.162;14.510;2022-07-29T08:03:33;24.30;62.10
39777;DHT22;25453;48.162;14.510;2022-07-29T08:06:01;24.30;62.00
39777;DHT22;25453;48.162;14.510;2022-07-29T08:08:29;24.40;61.90
39777;DHT22;25453;48.162;14.510;2022-07-29T08:10:57;24.40;61.70
39777;DHT22;25453;48.162;14.510;2022-07-29T08:13:26;24.40;61.60
39777;DHT22;25453;48.162;14.510;2022-07-29T08:15:59;24.40;61.50
39777;DHT22;25453;48.162;14.510;2022-07-29T08:18:30;24.40;61.30
39777;DHT22;25453;48.162;14.510;2022-07-29T08:20:59;24.40;60.90
39777;DHT22;25453;48.162;14.510;2022-07-29T08:23:26;24.40;60.80
39777;DHT22;25453;48.162;14.510;2022-07-29T08:26:15;24.40;60.70
39777;DHT22;25453;48.162;14.510;2022-07-29T08:28:44;24.50;60.70
39777;DHT22;25453;48.162;14.510;2022-07-29T08:31:13;24.50;60.60
39777;DHT22;25453;48.162;14.510;2022-07-29T08:33:42;24.60;60.30
39777;DHT22;25453;48.162;14.510;2022-07-29T08:36:10;24.60;60.20
39777;DHT22;25453;48.162;14.510;2022-07-29T08:38:38;24.70;60.10
39777;DHT22;25453;48.162;14.510;2022-07-29T08:41:05;24.70;60.10
39777;DHT22;25453;48.162;14.510;2022-07-29T08:43:33;24.80;60.10
39777;DHT22;25453;48.162;14.510;2022-07-29T08:46:05;24.90;60.00
39777;DHT22;25453;48.162;14.510;2022-07-29T08:48:33;24.90;59.80
39777;DHT22;25453;48.162;14.510;2022-07-29T08:51:01;25.00;59.80
39777;DHT22;25453;48.162;14.510;2022-07-29T08:53:30;25.00;59.70
39777;DHT22;25453;48.162;14.510;2022-07-29T08:55:59;25.00;59.60
39777;DHT22;25453;48.162;14.510;2022-07-29T08:58:32;25.00;59.60
39777;DHT22;25453;48.162;14.510;2022-07-29T09:01:03;25.10;59.70
39777;DHT22;25453;48.162;14.510;2022-07-29T09:03:36;25.10;59.60
39777;DHT22;25453;48.162;14.510;2022-07-29T09:06:05;25.20;59.70
39777;DHT22;25453;48.162;14.510;2022-07-29T09:08:34;25.30;59.80
39777;DHT22;25453;48.162;14.510;2022-07-29T09:11:04;25.30;59.70
39777;DHT22;25453;48.162;14.510;2022-07-29T09:13:31;25.40;59.70
39777;DHT22;25453;48.162;14.510;2022-07-29T09:15:59;25.50;59.80
39777;DHT22;25453;48.162;14.510;2022-07-29T09:18:42;25.60;59.90
39777;DHT22;25453;48.162;14.510;2022-07-29T09:21:13;25.60;59.90
39777;DHT22;25453;48.162;14.510;2022-07-29T09:24:09;25.70;59.80
39777;DHT22;25453;48.162;14.510;2022-07-29T09:26:40;25.80;59.90
39777;DHT22;25453;48.162;14.510;2022-07-29T09:29:13;25.90;59.70
39777;DHT22;25453;48.162;14.510;2022-07-29T09:31:46;26.00;59.60
39777;DHT22;25453;48.162;14.510;2022-07-29T09:34:16;26.10;59.60
39777;DHT22;25453;48.162;14.510;2022-07-29T09:36:46;26.10;59.10
39777;DHT22;25453;48.162;14.510;2022-07-29T09:39:17;26.10;59.10
39777;DHT22;25453;48.162;14.510;2022-07-29T09:41:55;26.10;59.00
39777;DHT22;25453;48.162;14.510;2022-07-29T09:44:24;26.10;58.50
39777;DHT22;25453;48.162;14.510;2022-07-29T09:47:03;26.10;58.70
39777;DHT22;25453;48.162;14.510;2022-07-29T09:49:49;26.10;58.80
39777;DHT22;25453;48.162;14.510;2022-07-29T09:52:17;26.10;58.70
39777;DHT22;25453;48.162;14.510;2022-07-29T09:54:45;26.10;58.70
39777;DHT22;25453;48.162;14.510;2022-07-29T09:57:27;26.10;58.60
39777;DHT22;25453;48.162;14.510;2022-07-29T09:59:59;26.10;58.50
39777;DHT22;25453;48.162;14.510;2022-07-29T10:02:32;26.20;58.30
39777;DHT22;25453;48.162;14.510;2022-07-29T10:05:02;26.20;58.20
39777;DHT22;25453;48.162;14.510;2022-07-29T10:10:30;26.20;58.30
39777;DHT22;25453;48.162;14.510;2022-07-29T10:13:00;26.20;58.10
39777;DHT22;25453;48.162;14.510;2022-07-29T10:15:37;26.30;57.90
39777;DHT22;25453;48.162;14.510;2022-07-29T10:18:09;26.30;57.80
39777;DHT22;25453;48.162;14.510;2022-07-29T10:20:37;26.40;57.80
39777;DHT22;25453;48.162;14.510;2022-07-29T10:23:05;26.40;57.80
39777;DHT22;25453;48.162;14.510;2022-07-29T10:25:33;26.50;57.80
39777;DHT22;25453;48.162;14.510;2022-07-29T10:28:00;26.60;57.90
39777;DHT22;25453;48.162;14.510;2022-07-29T10:30:28;26.80;57.80
39777;DHT22;25453;48.162;14.510;2022-07-29T10:41:56;27.60;56.40
39777;DHT22;25453;48.162;14.510;2022-07-29T10:44:31;27.70;56.00
39777;DHT22;25453;48.162;14.510;2022-07-29T10:47:01;27.70;55.70
39777;DHT22;25453;48.162;14.510;2022-07-29T10:49:28;27.80;55.40
39777;DHT22;25453;48.162;14.510;2022-07-29T10:52:07;27.80;55.10
39777;DHT22;25453;48.162;14.510;2022-07-29T10:57:18;28.10;55.30
39777;DHT22;25453;48.162;14.510;2022-07-29T11:02:44;28.50;54.50
39777;DHT22;25453;48.162;14.510;2022-07-29T11:05:17;28.60;54.00
39777;DHT22;25453;48.162;14.510;2022-07-29T11:10:51;28.80;53.40
39777;DHT22;25453;48.162;14.510;2022-07-29T11:13:44;28.90;53.40
39777;DHT22;25453;48.162;14.510;2022-07-29T11:16:19;29.10;52.90
39777;DHT22;25453;48.162;14.510;2022-07-29T11:21:44;29.30;51.90
39777;DHT22;25453;48.162;14.510;2022-07-29T11:24:29;29.40;51.40
39777;DHT22;25453;48.162;14.510;2022-07-29T11:27:10;29.40;51.00
39777;DHT22;25453;48.162;14.510;2022-07-29T11:29:53;29.50;50.60
39777;DHT22;25453;48.162;14.510;2022-07-29T11:32:24;29.60;50.30
39777;DHT22;25453;48.162;14.510;2022-07-29T11:35:18;29.60;50.20
39777;DHT22;25453;48.162;14.510;2022-07-29T11:38:25;29.60;49.90
39777;DHT22;25453;48.162;14.510;2022-07-29T11:41:20;29.60;49.70
39777;DHT22;25453;48.162;14.510;2022-07-29T11:43:57;29.80;49.60
39777;DHT22;25453;48.162;14.510;2022-07-29T11:46:46;30.00;49.40
39777;DHT22;25453;48.162;14.510;2022-07-29T11:49:25;30.20;49.30
39777;DHT22;25453;48.162;14.510;2022-07-29T11:51:59;30.50;48.70
39777;DHT22;25453;48.162;14.510;2022-07-29T11:54:33;30.70;47.90
39777;DHT22;25453;48.162;14.510;2022-07-29T11:57:21;30.90;47.50
39777;DHT22;25453;48.162;14.510;2022-07-29T12:00:07;31.10;47.40
39777;DHT22;25453;48.162;14.510;2022-07-29T12:02:43;31.30;46.90
39777;DHT22;25453;48.162;14.510;2022-07-29T12:05:14;31.40;46.60
39777;DHT22;25453;48.162;14.510;2022-07-29T12:10:42;31.50;46.10
39777;DHT22;25453;48.162;14.510;2022-07-29T12:13:10;31.40;45.90
39777;DHT22;25453;48.162;14.510;2022-07-29T12:15:39;31.20;45.90
39777;DHT22;25453;48.162;14.510;2022-07-29T12:18:20;31.10;46.40
39777;DHT22;25453;48.162;14.510;2022-07-29T12:20:57;31.10;46.80
39777;DHT22;25453;48.162;14.510;2022-07-29T12:23:33;31.20;47.00
39777;DHT22;25453;48.162;14.510;2022-07-29T12:26:07;31.30;46.80
39777;DHT22;25453;48.162;14.510;2022-07-29T12:28:38;31.40;46.80
39777;DHT22;25453;48.162;14.510;2022-07-29T12:31:16;31.50;46.70
39777;DHT22;25453;48.162;14.510;2022-07-29T12:34:03;31.60;46.30
39777;DHT22;25453;48.162;14.510;2022-07-29T12:36:32;31.70;46.20
39777;DHT22;25453;48.162;14.510;2022-07-29T12:38:59;31.90;45.80
39777;DHT22;25453;48.162;14.510;2022-07-29T12:41:28;31.90;45.40
39777;DHT22;25453;48.162;14.510;2022-07-29T12:43:56;32.00;45.10
39777;DHT22;25453;48.162;14.510;2022-07-29T12:46:23;32.10;44.90
39777;DHT22;25453;48.162;14.510;2022-07-29T12:48:52;32.10;44.90
39777;DHT22;25453;48.162;14.510;2022-07-29T12:51:38;32.30;44.60
39777;DHT22;25453;48.162;14.510;2022-07-29T12:54:11;32.40;44.40
39777;DHT22;25453;48.162;14.510;2022-07-29T12:56:41;32.50;44.10
39777;DHT22;25453;48.162;14.510;2022-07-29T12:59:21;32.60;44.10
39777;DHT22;25453;48.162;14.510;2022-07-29T13:01:51;32.80;43.70
39777;DHT22;25453;48.162;14.510;2022-07-29T13:04:30;32.80;43.50
39777;DHT22;25453;48.162;14.510;2022-07-29T13:07:00;32.80;43.20
39777;DHT22;25453;48.162;14.510;2022-07-29T13:09:44;32.80;43.10
39777;DHT22;25453;48.162;14.510;2022-07-29T13:12:15;32.80;43.00
39777;DHT22;25453;48.162;14.510;2022-07-29T13:14:47;32.70;43.00
39777;DHT22;25453;48.162;14.510;2022-07-29T13:17:19;32.70;42.70
39777;DHT22;25453;48.162;14.510;2022-07-29T13:20:05;32.80;42.80
39777;DHT22;25453;48.162;14.510;2022-07-29T13:22:34;32.70;42.50
39777;DHT22;25453;48.162;14.510;2022-07-29T13:25:03;32.60;42.00
39777;DHT22;25453;48.162;14.510;2022-07-29T13:27:32;32.40;42.10
39777;DHT22;25453;48.162;14.510;2022-07-29T13:30:08;32.20;42.30
39777;DHT22;25453;48.162;14.510;2022-07-29T13:32:36;32.10;42.60
39777;DHT22;25453;48.162;14.510;2022-07-29T13:35:06;32.00;42.80
39777;DHT22;25453;48.162;14.510;2022-07-29T13:37:36;32.00;43.10
39777;DHT22;25453;48.162;14.510;2022-07-29T13:40:07;32.00;43.20
39777;DHT22;25453;48.162;14.510;2022-07-29T13:42:35;32.00;43.10
39777;DHT22;25453;48.162;14.510;2022-07-29T13:45:03;32.10;43.00
39777;DHT22;25453;48.162;14.510;2022-07-29T13:47:32;32.10;42.50
39777;DHT22;25453;48.162;14.510;2022-07-29T13:50:00;32.10;42.00
39777;DHT22;25453;48.162;14.510;2022-07-29T13:52:29;32.20;41.90
39777;DHT22;25453;48.162;14.510;2022-07-29T13:54:57;32.20;42.00
39777;DHT22;25453;48.162;14.510;2022-07-29T13:57:28;32.10;41.80
39777;DHT22;25453;48.162;14.510;2022-07-29T13:59:57;32.10;42.10
39777;DHT22;25453;48.162;14.510;2022-07-29T14:02:25;32.20;42.60
39777;DHT22;25453;48.162;14.510;2022-07-29T14:04:53;32.30;42.50
39777;DHT22;25453;48.162;14.510;2022-07-29T14:07:22;32.40;42.30
39777;DHT22;25453;48.162;14.510;2022-07-29T14:09:51;32.50;42.00
39777;DHT22;25453;48.162;14.510;2022-07-29T14:12:19;32.50;41.90
39777;DHT22;25453;48.162;14.510;2022-07-29T14:14:46;32.60;41.80
39777;DHT22;25453;48.162;14.510;2022-07-29T14:17:15;32.60;41.50
39777;DHT22;25453;48.162;14.510;2022-07-29T14:19:43;32.60;41.40
39777;DHT22;25453;48.162;14.510;2022-07-29T14:22:12;32.60;41.40
39777;DHT22;25453;48.162;14.510;2022-07-29T14:24:39;32.70;41.00
39777;DHT22;25453;48.162;14.510;2022-07-29T14:27:08;32.60;40.80
39777;DHT22;25453;48.162;14.510;2022-07-29T14:29:36;32.50;40.40
39777;DHT22;25453;48.162;14.510;2022-07-29T14:32:06;32.30;40.40
39777;DHT22;25453;48.162;14.510;2022-07-29T14:34:35;32.20;40.80
39777;DHT22;25453;48.162;14.510;2022-07-29T14:37:04;32.10;41.30
39777;DHT22;25453;48.162;14.510;2022-07-29T14:39:33;32.10;41.50
39777;DHT22;25453;48.162;14.510;2022-07-29T14:42:08;32.00;41.60
39777;DHT22;25453;48.162;14.510;2022-07-29T14:44:39;32.00;41.80
39777;DHT22;25453;48.162;14.510;2022-07-29T14:47:10;32.00;42.00
39777;DHT22;25453;48.162;14.510;2022-07-29T14:49:38;31.90;42.30
39777;DHT22;25453;48.162;14.510;2022-07-29T14:52:05;31.90;42.30
39777;DHT22;25453;48.162;14.510;2022-07-29T14:54:33;31.80;42.20
39777;DHT22;25453;48.162;14.510;2022-07-29T14:57:01;31.80;42.20
39777;DHT22;25453;48.162;14.510;2022-07-29T14:59:28;31.70;42.30
39777;DHT22;25453;48.162;14.510;2022-07-29T15:01:56;31.60;42.40
39777;DHT22;25453;48.162;14.510;2022-07-29T15:04:24;31.50;42.60
39777;DHT22;25453;48.162;14.510;2022-07-29T15:06:52;31.50;42.70
39777;DHT22;25453;48.162;14.510;2022-07-29T15:09:19;31.40;42.60
39777;DHT22;25453;48.162;14.510;2022-07-29T15:11:47;31.30;43.00
39777;DHT22;25453;48.162;14.510;2022-07-29T15:14:15;31.20;43.20
39777;DHT22;25453;48.162;14.510;2022-07-29T15:16:46;31.10;43.40
39777;DHT22;25453;48.162;14.510;2022-07-29T15:19:14;31.00;43.80
39777;DHT22;25453;48.162;14.510;2022-07-29T15:21:41;30.90;44.20
39777;DHT22;25453;48.162;14.510;2022-07-29T15:24:18;30.80;44.60
39777;DHT22;25453;48.162;14.510;2022-07-29T15:26:46;30.70;44.90
39777;DHT22;25453;48.162;14.510;2022-07-29T15:29:14;30.70;45.30
39777;DHT22;25453;48.162;14.510;2022-07-29T15:31:42;30.60;45.80
39777;DHT22;25453;48.162;14.510;2022-07-29T15:34:11;30.50;46.00
39777;DHT22;25453;48.162;14.510;2022-07-29T15:36:42;30.40;46.10
39777;DHT22;25453;48.162;14.510;2022-07-29T15:39:20;30.30;46.20
39777;DHT22;25453;48.162;14.510;2022-07-29T15:41:48;30.20;46.10
39777;DHT22;25453;48.162;14.510;2022-07-29T15:44:16;30.20;45.90
39777;DHT22;25453;48.162;14.510;2022-07-29T15:46:44;30.10;45.80
39777;DHT22;25453;48.162;14.510;2022-07-29T15:49:31;30.00;45.70
39777;DHT22;25453;48.162;14.510;2022-07-29T15:52:19;29.90;45.40
39777;DHT22;25453;48.162;14.510;2022-07-29T15:54:56;29.80;45.50
39777;DHT22;25453;48.162;14.510;2022-07-29T15:57:24;29.70;45.30
39777;DHT22;25453;48.162;14.510;2022-07-29T15:59:51;29.70;45.40
39777;DHT22;25453;48.162;14.510;2022-07-29T16:02:19;29.60;45.20
39777;DHT22;25453;48.162;14.510;2022-07-29T16:04:49;29.50;45.10
39777;DHT22;25453;48.162;14.510;2022-07-29T16:07:16;29.50;45.30
39777;DHT22;25453;48.162;14.510;2022-07-29T16:09:44;29.40;45.40
39777;DHT22;25453;48.162;14.510;2022-07-29T16:12:20;29.40;45.40
39777;DHT22;25453;48.162;14.510;2022-07-29T16:14:47;29.40;45.40
39777;DHT22;25453;48.162;14.510;2022-07-29T16:17:17;29.30;45.50
39777;DHT22;25453;48.162;14.510;2022-07-29T16:19:45;29.30;45.60
39777;DHT22;25453;48.162;14.510;2022-07-29T16:22:13;29.30;45.80
39777;DHT22;25453;48.162;14.510;2022-07-29T16:24:40;29.30;45.90
39777;DHT22;25453;48.162;14.510;2022-07-29T16:27:08;29.30;46.00
39777;DHT22;25453;48.162;14.510;2022-07-29T16:29:35;29.30;46.00